Bemiss, Georgia
Current Conditions -  °F | °C
As of 8:53 AM on Thursday 18 Dec 2014 (Local Time) from KVLD Reporting Station
Broken Clouds Broken Clouds  
Wind Chill: 44°   Ceiling: 23000
Heat Index: 44°   Visibility: 9mi
Dew Point: 42°   Wind: 0mph
Humidity: 93%   Direction: NA
Pressure: 30.19"   Gusts: NA
Location:  30.8853°N, 83.3291°W
Report Text: KVLD 181353Z 00000KT 9SM BKN230 07/06 A3019 RMK AO2 SLP233 T00670056 $
Loading
Personal Weather Stations






























Interactive Weather Map New forecast layout! Learn more

10-Day Weather Forecast

Advertisements
Track Severe Weather on mobile